Time;durP1;ratioP1;P1;durP2;ratioP2;P2;SDS_P1;SDS_P2;PMS_P1;PMS_P2;Temp;Humidity;BMP_temperature;BMP_pressure;BME280_temperature;BME280_humidity;BME280_pressure;Samples;Min_cycle;Max_cycle;Signal;HPM_P1;HPM_P2
2022/08/01 00:00:17;;;;;;;8.25;6.45;;;;;;;;;;5065217;28;20036;-82
2022/08/01 00:02:43;;;;;;;8.20;6.43;;;;;;;;;;5057498;28;20119;-83
2022/08/01 00:05:10;;;;;;;7.95;6.55;;;;;;;;;;5062984;28;20116;-83
2022/08/01 00:07:37;;;;;;;8.63;6.97;;;;;;;;;;5053067;28;20025;-83
2022/08/01 00:10:07;;;;;;;6.80;5.85;;;;;;;;;;5057569;28;20033;-83
2022/08/01 00:12:33;;;;;;;7.97;6.88;;;;;;;;;;5060228;28;20059;-81
2022/08/01 00:15:00;;;;;;;9.45;7.30;;;;;;;;;;5057367;28;20064;-82
2022/08/01 00:17:26;;;;;;;8.80;6.05;;;;;;;;;;5047661;28;20052;-82
2022/08/01 00:19:52;;;;;;;8.07;6.47;;;;;;;;;;5077750;28;20089;-82
2022/08/01 00:22:18;;;;;;;8.77;6.82;;;;;;;;;;5076545;28;20039;-82
2022/08/01 00:24:44;;;;;;;7.05;6.00;;;;;;;;;;5063216;28;20580;-82
2022/08/01 00:27:10;;;;;;;8.43;6.72;;;;;;;;;;5056858;28;20131;-81
2022/08/01 00:29:36;;;;;;;8.07;5.90;;;;;;;;;;5060271;28;20076;-82
2022/08/01 00:32:02;;;;;;;7.95;6.65;;;;;;;;;;5071950;28;20087;-81
2022/08/01 00:34:28;;;;;;;8.32;6.93;;;;;;;;;;5055334;28;20116;-83
2022/08/01 00:36:55;;;;;;;6.90;6.00;;;;;;;;;;5042972;28;20070;-83
2022/08/01 00:39:21;;;;;;;8.60;6.75;;;;;;;;;;5061156;28;20017;-82
2022/08/01 00:41:47;;;;;;;10.27;6.63;;;;;;;;;;5070746;28;20063;-83
2022/08/01 00:44:13;;;;;;;8.23;6.63;;;;;;;;;;5074679;28;20036;-82
2022/08/01 00:46:39;;;;;;;8.23;6.32;;;;;;;;;;5062285;28;20029;-82
2022/08/01 00:49:05;;;;;;;8.90;7.07;;;;;;;;;;5060440;28;20033;-82
2022/08/01 00:51:31;;;;;;;8.10;6.43;;;;;;;;;;5061014;28;20081;-82
2022/08/01 00:53:57;;;;;;;7.68;6.03;;;;;;;;;;5062079;28;20028;-80
2022/08/01 00:56:25;;;;;;;7.10;6.18;;;;;;;;;;5060089;28;20021;-82
2022/08/01 00:58:51;;;;;;;10.43;6.85;;;;;;;;;;5060710;28;20036;-82
2022/08/01 01:01:20;;;;;;;7.93;6.60;;;;;;;;;;5071506;28;20039;-83
2022/08/01 01:03:46;;;;;;;7.93;6.55;;;;;;;;;;5064155;28;20129;-81
2022/08/01 01:06:18;;;;;;;8.18;7.28;;;;;;;;;;5061048;28;20097;-81
2022/08/01 01:08:51;;;;;;;9.20;6.63;;;;;;;;;;5061323;28;20035;-83
2022/08/01 01:11:22;;;;;;;8.13;6.20;;;;;;;;;;5061163;28;20029;-82
2022/08/01 01:13:52;;;;;;;8.63;7.10;;;;;;;;;;5066159;28;20036;-81
2022/08/01 01:16:19;;;;;;;8.45;6.60;;;;;;;;;;5059665;28;20279;-82
2022/08/01 01:18:47;;;;;;;9.45;6.75;;;;;;;;;;5059991;28;20048;-82
2022/08/01 01:21:19;;;;;;;8.15;6.70;;;;;;;;;;5060563;28;20083;-82
2022/08/01 01:23:48;;;;;;;7.63;6.32;;;;;;;;;;5060906;28;20024;-81
2022/08/01 01:26:23;;;;;;;7.63;6.28;;;;;;;;;;5059390;28;20080;-80
2022/08/01 01:29:08;;;;;;;9.07;6.30;;;;;;;;;;5043679;28;20384;-82
2022/08/01 01:31:41;;;;;;;7.85;6.20;;;;;;;;;;5049789;28;20037;-82
2022/08/01 01:34:08;;;;;;;8.82;6.43;;;;;;;;;;5060736;28;20055;-81
2022/08/01 01:36:34;;;;;;;8.07;6.45;;;;;;;;;;5060292;28;20018;-82
2022/08/01 01:39:01;;;;;;;8.50;7.13;;;;;;;;;;5066010;28;20028;-83
2022/08/01 01:41:27;;;;;;;9.18;6.57;;;;;;;;;;5059280;28;20028;-82
2022/08/01 01:43:53;;;;;;;7.53;6.72;;;;;;;;;;5060057;28;20295;-83
2022/08/01 01:46:23;;;;;;;8.13;6.88;;;;;;;;;;5040891;28;20025;-83
2022/08/01 01:48:49;;;;;;;7.95;6.22;;;;;;;;;;5066636;28;20056;-81
2022/08/01 01:51:15;;;;;;;7.70;6.38;;;;;;;;;;5076031;28;20025;-82
2022/08/01 01:53:42;;;;;;;7.75;6.45;;;;;;;;;;5058731;28;20471;-81
2022/08/01 01:56:09;;;;;;;7.40;6.60;;;;;;;;;;5058964;28;20032;-83
2022/08/01 01:58:38;;;;;;;8.45;7.18;;;;;;;;;;5059419;28;20113;-83
2022/08/01 02:01:05;;;;;;;8.75;6.72;;;;;;;;;;5041634;28;20021;-80
2022/08/01 02:03:32;;;;;;;9.05;7.38;;;;;;;;;;5059090;28;20025;-82
2022/08/01 02:05:58;;;;;;;8.02;6.57;;;;;;;;;;5041832;28;20017;-82
2022/08/01 02:08:25;;;;;;;8.98;7.88;;;;;;;;;;5058208;28;20033;-82
2022/08/01 02:13:38;;;;;;;8.65;6.80;;;;;;;;;;5059374;28;20576;-82
2022/08/01 02:16:04;;;;;;;7.93;7.13;;;;;;;;;;5041701;28;20029;-82
2022/08/01 02:18:30;;;;;;;7.90;6.68;;;;;;;;;;5059498;28;20082;-83
2022/08/01 02:20:58;;;;;;;8.45;7.25;;;;;;;;;;5065420;28;20044;-81
2022/08/01 02:23:24;;;;;;;8.27;6.07;;;;;;;;;;5066079;28;20028;-82
2022/08/01 02:25:52;;;;;;;9.23;6.88;;;;;;;;;;5067977;28;20028;-80
2022/08/01 02:28:27;;;;;;;7.85;6.70;;;;;;;;;;5059883;28;20041;-81
2022/08/01 02:30:55;;;;;;;8.25;7.13;;;;;;;;;;5060251;28;20025;-83
2022/08/01 02:33:31;;;;;;;8.27;6.70;;;;;;;;;;5059347;28;20025;-81
2022/08/01 02:35:59;;;;;;;8.40;6.90;;;;;;;;;;5064712;28;20386;-81
2022/08/01 02:38:27;;;;;;;8.82;7.20;;;;;;;;;;5077836;28;20032;-82
2022/08/01 02:40:57;;;;;;;8.38;7.35;;;;;;;;;;5063755;28;20029;-82
2022/08/01 02:43:25;;;;;;;7.97;6.43;;;;;;;;;;5059615;28;20079;-81
2022/08/01 02:45:53;;;;;;;8.18;7.07;;;;;;;;;;5059231;28;20464;-82
2022/08/01 02:48:19;;;;;;;8.60;7.15;;;;;;;;;;5058618;28;20067;-83
2022/08/01 02:50:47;;;;;;;7.93;6.68;;;;;;;;;;5057831;28;20032;-81
2022/08/01 02:53:14;;;;;;;8.48;7.18;;;;;;;;;;5058062;28;20028;-82
2022/08/01 02:55:41;;;;;;;8.02;6.72;;;;;;;;;;5057950;28;20479;-83
2022/08/01 02:58:09;;;;;;;8.40;7.45;;;;;;;;;;5058510;28;20067;-83
2022/08/01 03:00:35;;;;;;;8.85;7.15;;;;;;;;;;5055915;28;20502;-82
2022/08/01 03:03:03;;;;;;;8.18;6.88;;;;;;;;;;5067183;28;20043;-82
2022/08/01 03:05:31;;;;;;;9.23;7.22;;;;;;;;;;5060563;28;20039;-83
2022/08/01 03:07:59;;;;;;;9.63;7.38;;;;;;;;;;5062185;28;20025;-82
2022/08/01 03:10:27;;;;;;;8.85;7.43;;;;;;;;;;5056164;28;20166;-82
2022/08/01 03:12:53;;;;;;;8.13;6.88;;;;;;;;;;5071126;28;20394;-83
2022/08/01 03:15:19;;;;;;;8.55;6.93;;;;;;;;;;5060633;28;20112;-82
2022/08/01 03:17:47;;;;;;;9.90;7.15;;;;;;;;;;5078569;28;20025;-83
2022/08/01 03:20:14;;;;;;;8.13;7.07;;;;;;;;;;5045274;28;20059;-82
2022/08/01 03:22:41;;;;;;;8.35;6.90;;;;;;;;;;5062758;28;20068;-82
2022/08/01 03:25:08;;;;;;;8.07;7.28;;;;;;;;;;5073984;28;20099;-81
2022/08/01 03:27:37;;;;;;;8.70;7.80;;;;;;;;;;5057365;28;20021;-82
2022/08/01 03:30:04;;;;;;;9.98;7.88;;;;;;;;;;5042475;28;20053;-82
2022/08/01 03:32:31;;;;;;;8.95;7.47;;;;;;;;;;5037974;28;20041;-82
2022/08/01 03:34:58;;;;;;;10.18;7.43;;;;;;;;;;5058216;28;20029;-82
2022/08/01 03:37:29;;;;;;;8.25;7.38;;;;;;;;;;5057087;28;20025;-81
2022/08/01 03:39:59;;;;;;;8.55;7.47;;;;;;;;;;5044559;28;20037;-82
2022/08/01 03:42:45;;;;;;;9.93;7.90;;;;;;;;;;5036416;28;20041;-82
2022/08/01 03:45:17;;;;;;;9.20;8.23;;;;;;;;;;5037184;28;20029;-82
2022/08/01 03:47:43;;;;;;;9.23;8.23;;;;;;;;;;5054877;28;20112;-81
2022/08/01 03:50:11;;;;;;;10.75;7.53;;;;;;;;;;5058114;28;20025;-82
2022/08/01 03:52:38;;;;;;;8.60;7.13;;;;;;;;;;5056823;28;20028;-82
2022/08/01 03:55:06;;;;;;;8.57;7.68;;;;;;;;;;5046559;28;20025;-81
2022/08/01 03:57:33;;;;;;;9.73;7.47;;;;;;;;;;5039697;28;20049;-83
2022/08/01 04:00:00;;;;;;;8.38;7.47;;;;;;;;;;5056563;28;20029;-81
2022/08/01 04:02:27;;;;;;;9.90;7.00;;;;;;;;;;5057752;28;20032;-82
2022/08/01 04:04:53;;;;;;;8.57;7.28;;;;;;;;;;5053833;28;20040;-83
2022/08/01 04:07:23;;;;;;;8.05;7.13;;;;;;;;;;5035664;28;20037;-83
2022/08/01 04:09:49;;;;;;;9.30;7.22;;;;;;;;;;5053161;28;20021;-82
2022/08/01 04:12:15;;;;;;;9.52;7.72;;;;;;;;;;5055233;28;20029;-81
2022/08/01 04:14:41;;;;;;;8.40;7.22;;;;;;;;;;5043768;28;20026;-82
2022/08/01 04:17:08;;;;;;;9.23;7.60;;;;;;;;;;5044097;28;20402;-83
2022/08/01 04:19:34;;;;;;;7.97;7.05;;;;;;;;;;5051209;28;20032;-83
2022/08/01 04:22:00;;;;;;;10.10;7.50;;;;;;;;;;5041728;28;20479;-83
2022/08/01 04:24:28;;;;;;;8.82;7.32;;;;;;;;;;5039939;28;20037;-82
2022/08/01 04:26:55;;;;;;;8.50;6.72;;;;;;;;;;5051886;28;20046;-83
2022/08/01 04:29:22;;;;;;;8.27;7.13;;;;;;;;;;5061587;28;20045;-83
2022/08/01 04:31:49;;;;;;;8.23;7.10;;;;;;;;;;5071991;28;20111;-83
2022/08/01 04:34:18;;;;;;;8.43;7.38;;;;;;;;;;5059211;28;20151;-82
2022/08/01 04:36:44;;;;;;;8.00;6.82;;;;;;;;;;5064041;28;20016;-83
2022/08/01 04:39:11;;;;;;;9.63;7.22;;;;;;;;;;5075399;28;20025;-83
2022/08/01 04:41:37;;;;;;;9.38;7.25;;;;;;;;;;5065667;28;20028;-82
2022/08/01 04:44:04;;;;;;;8.80;7.13;;;;;;;;;;5080558;28;20028;-80
2022/08/01 04:46:30;;;;;;;9.10;6.90;;;;;;;;;;5060755;28;20080;-79
2022/08/01 04:48:58;;;;;;;7.43;6.03;;;;;;;;;;5060289;28;20288;-82
2022/08/01 04:51:24;;;;;;;8.88;7.00;;;;;;;;;;5063654;28;20339;-81
2022/08/01 04:53:50;;;;;;;9.07;7.60;;;;;;;;;;5058973;28;20057;-81
2022/08/01 04:56:17;;;;;;;7.95;6.75;;;;;;;;;;5060753;28;20503;-82
2022/08/01 04:58:43;;;;;;;9.85;7.25;;;;;;;;;;5058777;28;20116;-82
2022/08/01 05:01:10;;;;;;;9.23;6.95;;;;;;;;;;5059457;28;20033;-82
2022/08/01 05:03:36;;;;;;;8.20;7.15;;;;;;;;;;5076114;28;20029;-82
2022/08/01 05:06:02;;;;;;;9.48;7.72;;;;;;;;;;5062392;28;20470;-82
2022/08/01 05:08:28;;;;;;;9.95;8.00;;;;;;;;;;5070636;28;20037;-81
2022/08/01 05:10:55;;;;;;;8.05;6.78;;;;;;;;;;5060950;28;20076;-82
2022/08/01 05:13:21;;;;;;;8.43;7.13;;;;;;;;;;5060498;28;20398;-79
2022/08/01 05:15:47;;;;;;;10.60;7.05;;;;;;;;;;5057528;28;20021;-82
2022/08/01 05:18:13;;;;;;;7.65;6.53;;;;;;;;;;5074550;28;20513;-82
2022/08/01 05:20:39;;;;;;;8.13;6.53;;;;;;;;;;5070217;28;20056;-81
2022/08/01 05:23:05;;;;;;;8.35;6.65;;;;;;;;;;5058922;28;20074;-82
2022/08/01 05:25:33;;;;;;;11.88;8.75;;;;;;;;;;5060218;28;20092;-82
2022/08/01 05:27:59;;;;;;;10.13;7.90;;;;;;;;;;5059257;28;20032;-82
2022/08/01 05:30:26;;;;;;;10.55;8.40;;;;;;;;;;5059529;28;20048;-82
2022/08/01 05:32:52;;;;;;;9.93;7.97;;;;;;;;;;5032656;28;20022;-82
2022/08/01 05:35:19;;;;;;;11.85;7.95;;;;;;;;;;5040377;28;20030;-82
2022/08/01 05:37:45;;;;;;;12.50;8.02;;;;;;;;;;5034915;28;20020;-80
2022/08/01 05:40:12;;;;;;;10.70;8.00;;;;;;;;;;5059519;28;20025;-81
2022/08/01 05:42:38;;;;;;;10.75;8.48;;;;;;;;;;5057349;28;20021;-81
2022/08/01 05:45:04;;;;;;;8.85;7.25;;;;;;;;;;5059304;28;20083;-82
2022/08/01 05:47:30;;;;;;;9.65;7.07;;;;;;;;;;5067520;28;20017;-82
2022/08/01 05:49:56;;;;;;;10.00;7.15;;;;;;;;;;5059701;28;20033;-82
2022/08/01 05:52:22;;;;;;;10.77;7.78;;;;;;;;;;5058947;28;20048;-80
2022/08/01 05:54:48;;;;;;;8.82;7.53;;;;;;;;;;5058544;28;20150;-80
2022/08/01 05:57:14;;;;;;;11.40;7.60;;;;;;;;;;5064652;28;20040;-82
2022/08/01 05:59:40;;;;;;;11.38;8.00;;;;;;;;;;5059229;28;20260;-82
2022/08/01 06:02:06;;;;;;;8.85;6.93;;;;;;;;;;5060047;28;20395;-82
2022/08/01 06:04:32;;;;;;;8.75;6.88;;;;;;;;;;5058936;28;20108;-82
2022/08/01 06:06:58;;;;;;;8.30;6.38;;;;;;;;;;5060120;28;20021;-81
2022/08/01 06:09:24;;;;;;;9.32;6.47;;;;;;;;;;5060303;28;20031;-82
2022/08/01 06:11:50;;;;;;;8.88;6.60;;;;;;;;;;5064805;28;20017;-82
2022/08/01 06:14:16;;;;;;;8.43;6.63;;;;;;;;;;5058495;28;20090;-81
2022/08/01 06:16:42;;;;;;;6.88;5.65;;;;;;;;;;5058357;28;20017;-82
2022/08/01 06:19:08;;;;;;;8.88;6.18;;;;;;;;;;5059178;28;20109;-83
2022/08/01 06:21:35;;;;;;;7.18;5.82;;;;;;;;;;5058242;28;20467;-81
2022/08/01 06:24:01;;;;;;;7.47;5.63;;;;;;;;;;5059170;28;20032;-82
2022/08/01 06:26:27;;;;;;;7.82;5.55;;;;;;;;;;5058422;28;20028;-82
2022/08/01 06:28:53;;;;;;;7.78;5.93;;;;;;;;;;5058557;28;20135;-82
2022/08/01 06:31:19;;;;;;;7.47;5.75;;;;;;;;;;5064774;28;20071;-78
2022/08/01 06:33:45;;;;;;;7.32;5.53;;;;;;;;;;5058961;28;20021;-83
2022/08/01 06:36:11;;;;;;;7.40;5.80;;;;;;;;;;5058605;28;20029;-82
2022/08/01 06:38:38;;;;;;;7.45;6.00;;;;;;;;;;5058922;28;20052;-83
2022/08/01 06:41:04;;;;;;;11.65;7.63;;;;;;;;;;5058221;28;20036;-83
2022/08/01 06:43:31;;;;;;;8.55;5.85;;;;;;;;;;5059410;28;20040;-81
2022/08/01 06:45:57;;;;;;;7.15;5.28;;;;;;;;;;5039922;28;20127;-83
2022/08/01 06:48:23;;;;;;;7.35;5.50;;;;;;;;;;5056279;28;20494;-82
2022/08/01 06:50:49;;;;;;;8.20;5.95;;;;;;;;;;5036527;28;20112;-83
2022/08/01 06:53:15;;;;;;;6.55;5.47;;;;;;;;;;5055450;28;20034;-83
2022/08/01 06:55:41;;;;;;;6.10;4.82;;;;;;;;;;5057111;28;20029;-83
2022/08/01 06:58:07;;;;;;;6.20;4.70;;;;;;;;;;5067937;28;20052;-82
2022/08/01 07:00:33;;;;;;;7.28;4.57;;;;;;;;;;5048763;28;20044;-82
2022/08/01 07:03:00;;;;;;;6.28;4.80;;;;;;;;;;5052714;28;20054;-79
2022/08/01 07:05:26;;;;;;;6.25;5.15;;;;;;;;;;5050567;28;20029;-81
2022/08/01 07:07:52;;;;;;;7.28;5.13;;;;;;;;;;5064945;28;20368;-83
2022/08/01 07:10:18;;;;;;;5.57;4.63;;;;;;;;;;5070956;28;20029;-82
2022/08/01 07:12:44;;;;;;;7.40;5.95;;;;;;;;;;5059040;28;20031;-83
2022/08/01 07:15:10;;;;;;;7.13;5.35;;;;;;;;;;5059859;28;20538;-80
2022/08/01 07:17:38;;;;;;;6.90;5.18;;;;;;;;;;5069655;28;20024;-81
2022/08/01 07:20:04;;;;;;;6.68;5.07;;;;;;;;;;5072364;28;20028;-81
2022/08/01 07:22:30;;;;;;;6.15;4.93;;;;;;;;;;5059507;28;20028;-79
2022/08/01 07:24:56;;;;;;;8.18;5.20;;;;;;;;;;5057671;28;20050;-83
2022/08/01 07:27:22;;;;;;;6.55;4.95;;;;;;;;;;5058325;28;20033;-82
2022/08/01 07:29:48;;;;;;;6.82;5.15;;;;;;;;;;5066759;28;20510;-82
2022/08/01 07:32:14;;;;;;;6.13;4.60;;;;;;;;;;5056189;28;20051;-82
2022/08/01 07:34:40;;;;;;;7.07;4.68;;;;;;;;;;5055708;28;20021;-82
2022/08/01 07:37:06;;;;;;;6.15;5.30;;;;;;;;;;5042534;28;20021;-79
2022/08/01 07:39:32;;;;;;;6.78;4.43;;;;;;;;;;5056588;28;20036;-83
2022/08/01 07:41:58;;;;;;;7.65;4.72;;;;;;;;;;5074470;28;20033;-82
2022/08/01 07:44:24;;;;;;;8.45;4.47;;;;;;;;;;5062424;28;20021;-82
2022/08/01 07:46:50;;;;;;;7.30;5.18;;;;;;;;;;5059735;28;20025;-80
2022/08/01 07:49:16;;;;;;;6.65;4.63;;;;;;;;;;5058217;28;20039;-81
2022/08/01 07:51:42;;;;;;;5.60;4.47;;;;;;;;;;5056554;28;20037;-82
2022/08/01 07:54:08;;;;;;;5.88;4.22;;;;;;;;;;5060574;28;20055;-81
2022/08/01 07:56:34;;;;;;;6.15;4.50;;;;;;;;;;5064747;28;20021;-81
2022/08/01 07:59:00;;;;;;;7.28;5.07;;;;;;;;;;5057385;28;20352;-82
2022/08/01 08:01:27;;;;;;;7.57;4.53;;;;;;;;;;5056325;28;20476;-82
2022/08/01 08:03:53;;;;;;;7.07;4.40;;;;;;;;;;5054494;28;20017;-82
2022/08/01 08:06:19;;;;;;;6.25;4.55;;;;;;;;;;5052093;28;20040;-83
2022/08/01 08:08:45;;;;;;;5.85;4.38;;;;;;;;;;5048929;28;20105;-82
2022/08/01 08:11:11;;;;;;;5.78;4.05;;;;;;;;;;5048545;28;20028;-82
2022/08/01 08:13:37;;;;;;;5.75;4.32;;;;;;;;;;5054226;28;20438;-81
2022/08/01 08:16:03;;;;;;;6.13;4.47;;;;;;;;;;5055416;28;20483;-82
2022/08/01 08:18:29;;;;;;;5.78;4.53;;;;;;;;;;5061958;28;20049;-81
2022/08/01 08:20:55;;;;;;;6.10;4.45;;;;;;;;;;5076616;28;20025;-82
2022/08/01 08:26:06;;;;;;;6.80;4.72;;;;;;;;;;5055549;28;20094;-82
2022/08/01 08:28:32;;;;;;;6.43;4.13;;;;;;;;;;5055690;28;20060;-82
2022/08/01 08:30:58;;;;;;;6.82;4.10;;;;;;;;;;5063036;28;20029;-83
2022/08/01 08:33:24;;;;;;;4.95;3.78;;;;;;;;;;5049109;28;20425;-82
2022/08/01 08:35:50;;;;;;;6.10;4.45;;;;;;;;;;5050382;28;20025;-82
2022/08/01 08:38:16;;;;;;;6.10;4.03;;;;;;;;;;5053717;28;20134;-81
2022/08/01 08:40:42;;;;;;;5.10;3.97;;;;;;;;;;5057285;28;20099;-79
2022/08/01 08:43:08;;;;;;;5.47;4.32;;;;;;;;;;5056240;28;20029;-81
2022/08/01 08:45:34;;;;;;;5.95;4.28;;;;;;;;;;5057726;28;20021;-82
2022/08/01 08:48:01;;;;;;;6.07;4.13;;;;;;;;;;5054062;28;20028;-80
2022/08/01 08:50:28;;;;;;;5.80;4.30;;;;;;;;;;5060759;28;20047;-82
2022/08/01 08:52:54;;;;;;;5.13;4.22;;;;;;;;;;5053200;28;20028;-82
2022/08/01 08:55:21;;;;;;;6.00;4.43;;;;;;;;;;5054911;28;20401;-82
2022/08/01 08:57:47;;;;;;;7.63;4.72;;;;;;;;;;5054635;28;20025;-82
2022/08/01 09:00:14;;;;;;;6.25;4.30;;;;;;;;;;5056757;28;20028;-82
2022/08/01 09:02:43;;;;;;;5.82;4.18;;;;;;;;;;5056291;28;20068;-82
2022/08/01 09:05:10;;;;;;;6.63;4.00;;;;;;;;;;5054610;28;20021;-81
2022/08/01 09:07:36;;;;;;;5.15;3.85;;;;;;;;;;5058115;28;20025;-81
2022/08/01 09:10:02;;;;;;;6.90;4.55;;;;;;;;;;5055723;28;20391;-82
2022/08/01 09:12:28;;;;;;;5.63;4.15;;;;;;;;;;5060159;28;20051;-82
2022/08/01 09:14:54;;;;;;;5.00;3.72;;;;;;;;;;5058701;28;20017;-83
2022/08/01 09:17:20;;;;;;;5.82;4.45;;;;;;;;;;5061905;28;20021;-83
2022/08/01 09:19:49;;;;;;;5.95;3.85;;;;;;;;;;5061579;28;20486;-82
2022/08/01 09:22:18;;;;;;;5.53;4.03;;;;;;;;;;5059594;28;20025;-80
2022/08/01 09:24:57;;;;;;;6.22;4.63;;;;;;;;;;5059604;28;20029;-82
2022/08/01 09:27:25;;;;;;;5.78;3.67;;;;;;;;;;5059464;28;20510;-81
2022/08/01 09:29:51;;;;;;;5.40;4.20;;;;;;;;;;5060899;28;20049;-80
2022/08/01 09:32:17;;;;;;;5.10;3.95;;;;;;;;;;5042007;28;20045;-84
2022/08/01 09:34:43;;;;;;;4.80;3.60;;;;;;;;;;5053969;28;20028;-82
2022/08/01 09:37:10;;;;;;;5.22;3.78;;;;;;;;;;5066060;28;20779;-82
2022/08/01 09:39:39;;;;;;;5.85;4.40;;;;;;;;;;5074517;28;20028;-82
2022/08/01 09:42:24;;;;;;;5.18;4.00;;;;;;;;;;5061648;28;20021;-83
2022/08/01 09:44:50;;;;;;;5.10;4.10;;;;;;;;;;5064829;28;20021;-83
2022/08/01 09:47:17;;;;;;;6.22;4.45;;;;;;;;;;5042600;28;20116;-81
2022/08/01 09:49:45;;;;;;;5.43;4.07;;;;;;;;;;5058110;28;20368;-81
2022/08/01 09:52:14;;;;;;;6.18;3.90;;;;;;;;;;5058512;28;20033;-82
2022/08/01 09:54:41;;;;;;;5.55;3.75;;;;;;;;;;5057341;28;20021;-84
2022/08/01 09:57:17;;;;;;;5.65;4.45;;;;;;;;;;5059861;28;20025;-81
2022/08/01 09:59:45;;;;;;;5.13;4.05;;;;;;;;;;5065269;28;20043;-83
2022/08/01 10:02:15;;;;;;;5.10;3.60;;;;;;;;;;5078512;28;20052;-84
2022/08/01 10:04:47;;;;;;;6.18;4.03;;;;;;;;;;5057012;28;20447;-83
2022/08/01 10:07:15;;;;;;;5.70;4.30;;;;;;;;;;5050846;28;20040;-81
2022/08/01 10:09:42;;;;;;;5.53;4.10;;;;;;;;;;5065557;28;20029;-81
2022/08/01 10:12:09;;;;;;;5.60;4.10;;;;;;;;;;5058162;28;20464;-80
2022/08/01 10:14:36;;;;;;;5.45;4.13;;;;;;;;;;5059850;28;20483;-82
2022/08/01 10:17:02;;;;;;;5.30;3.85;;;;;;;;;;5059343;28;20021;-83
2022/08/01 10:19:29;;;;;;;5.97;4.20;;;;;;;;;;5076914;28;20092;-82
2022/08/01 10:21:56;;;;;;;6.57;4.20;;;;;;;;;;5078525;28;20085;-82
2022/08/01 10:24:23;;;;;;;5.50;3.97;;;;;;;;;;5080262;28;20075;-82
2022/08/01 10:26:51;;;;;;;5.78;4.00;;;;;;;;;;5078272;28;20502;-82
2022/08/01 10:29:18;;;;;;;5.60;4.30;;;;;;;;;;5057423;28;20598;-83
2022/08/01 10:31:45;;;;;;;5.45;4.32;;;;;;;;;;5061447;28;20499;-82
2022/08/01 10:34:11;;;;;;;5.57;4.32;;;;;;;;;;5070270;28;20021;-83
2022/08/01 10:36:38;;;;;;;5.45;4.35;;;;;;;;;;5079514;28;20483;-81
2022/08/01 10:39:06;;;;;;;5.57;4.45;;;;;;;;;;5079875;28;20032;-81
2022/08/01 10:41:33;;;;;;;5.60;4.07;;;;;;;;;;5079240;28;20021;-83
2022/08/01 10:44:02;;;;;;;6.68;3.78;;;;;;;;;;5064717;28;20033;-82
2022/08/01 10:46:30;;;;;;;4.90;3.47;;;;;;;;;;5060770;28;20025;-82
2022/08/01 10:49:01;;;;;;;6.35;4.10;;;;;;;;;;5060580;28;20033;-82
2022/08/01 10:51:28;;;;;;;4.82;3.33;;;;;;;;;;5058685;28;20112;-82
2022/08/01 10:53:55;;;;;;;4.82;3.60;;;;;;;;;;5071347;28;20035;-82
2022/08/01 10:56:24;;;;;;;5.80;3.25;;;;;;;;;;5079759;28;20651;-82
2022/08/01 10:59:00;;;;;;;4.90;3.60;;;;;;;;;;5063783;28;20544;-81
2022/08/01 11:01:32;;;;;;;5.07;3.60;;;;;;;;;;5059279;28;20050;-81
2022/08/01 11:04:01;;;;;;;5.13;3.38;;;;;;;;;;5075239;28;20025;-81
2022/08/01 11:06:33;;;;;;;5.68;3.40;;;;;;;;;;5078694;28;20035;-82
2022/08/01 11:09:01;;;;;;;4.60;3.10;;;;;;;;;;5079457;28;20021;-82
2022/08/01 11:11:27;;;;;;;5.53;3.70;;;;;;;;;;5078754;28;20251;-81
2022/08/01 11:14:12;;;;;;;6.18;4.30;;;;;;;;;;5057239;28;20028;-82
2022/08/01 11:16:39;;;;;;;6.38;3.83;;;;;;;;;;5058039;28;20028;-82
2022/08/01 11:19:05;;;;;;;7.72;4.00;;;;;;;;;;5058185;28;20237;-81
2022/08/01 11:21:50;;;;;;;5.28;3.72;;;;;;;;;;5058790;28;20037;-82
2022/08/01 11:24:16;;;;;;;5.68;3.60;;;;;;;;;;5061043;28;20040;-80
2022/08/01 11:27:02;;;;;;;5.85;3.75;;;;;;;;;;5057638;28;20395;-82
2022/08/01 11:29:28;;;;;;;5.88;3.90;;;;;;;;;;5055097;28;20045;-83
2022/08/01 11:32:14;;;;;;;5.15;3.60;;;;;;;;;;5047255;28;20511;-82
2022/08/01 11:34:56;;;;;;;5.70;3.70;;;;;;;;;;5056104;28;20049;-82
2022/08/01 11:37:26;;;;;;;4.90;3.78;;;;;;;;;;5039663;28;20119;-83
2022/08/01 11:40:11;;;;;;;4.78;3.47;;;;;;;;;;5058398;28;20074;-82
2022/08/01 11:42:37;;;;;;;6.13;3.35;;;;;;;;;;5059095;28;20028;-81
2022/08/01 11:45:03;;;;;;;4.90;3.60;;;;;;;;;;5078462;28;20438;-82
2022/08/01 11:47:45;;;;;;;5.10;3.45;;;;;;;;;;5078098;28;20032;-83
2022/08/01 11:50:30;;;;;;;4.93;3.60;;;;;;;;;;5078187;28;20028;-81
2022/08/01 11:53:00;;;;;;;6.38;3.45;;;;;;;;;;5059109;28;20032;-81
2022/08/01 11:55:27;;;;;;;5.30;3.67;;;;;;;;;;5078104;28;20090;-81
2022/08/01 11:58:03;;;;;;;5.50;3.85;;;;;;;;;;5058098;28;20017;-82
2022/08/01 12:00:30;;;;;;;5.38;3.70;;;;;;;;;;5078368;28;20074;-82
2022/08/01 12:03:01;;;;;;;5.32;3.90;;;;;;;;;;5077191;28;20027;-82
2022/08/01 12:05:28;;;;;;;6.50;3.80;;;;;;;;;;5078768;28;20078;-80
2022/08/01 12:07:55;;;;;;;6.65;3.83;;;;;;;;;;5075991;28;20020;-82
2022/08/01 12:10:22;;;;;;;5.43;3.85;;;;;;;;;;5076589;28;20051;-81
2022/08/01 12:12:53;;;;;;;5.28;3.60;;;;;;;;;;5065718;28;20728;-83
2022/08/01 12:15:21;;;;;;;7.60;3.80;;;;;;;;;;5055244;28;20483;-82
2022/08/01 12:17:49;;;;;;;7.13;3.72;;;;;;;;;;5059337;28;20425;-82
2022/08/01 12:20:16;;;;;;;6.25;3.60;;;;;;;;;;5058314;28;20029;-83
2022/08/01 12:22:43;;;;;;;5.40;3.72;;;;;;;;;;5058260;28;20035;-81
2022/08/01 12:25:13;;;;;;;7.32;4.13;;;;;;;;;;5064400;28;20045;-82
2022/08/01 12:27:40;;;;;;;7.38;4.30;;;;;;;;;;5059387;28;20067;-83
2022/08/01 12:30:07;;;;;;;5.95;4.20;;;;;;;;;;5050221;28;20075;-83
2022/08/01 12:32:36;;;;;;;5.75;4.30;;;;;;;;;;5070728;28;20025;-82
2022/08/01 12:35:13;;;;;;;5.72;4.32;;;;;;;;;;5054515;28;20021;-83
2022/08/01 12:37:41;;;;;;;6.57;5.15;;;;;;;;;;5062128;28;20024;-84
2022/08/01 12:40:26;;;;;;;5.85;4.25;;;;;;;;;;5060323;28;20044;-83
2022/08/01 12:42:53;;;;;;;5.20;3.65;;;;;;;;;;5050694;28;20398;-83
2022/08/01 12:45:24;;;;;;;5.22;3.30;;;;;;;;;;5080551;28;20478;-84
2022/08/01 12:47:52;;;;;;;4.95;3.20;;;;;;;;;;5081866;28;20027;-83
2022/08/01 12:50:20;;;;;;;5.68;2.63;;;;;;;;;;5063721;28;20052;-83
2022/08/01 12:52:47;;;;;;;4.72;2.47;;;;;;;;;;5078538;28;20390;-84
2022/08/01 12:55:17;;;;;;;5.47;2.67;;;;;;;;;;5081246;28;20025;-83
2022/08/01 12:57:49;;;;;;;5.10;2.30;;;;;;;;;;5076190;28;20029;-81
2022/08/01 13:00:26;;;;;;;4.38;2.33;;;;;;;;;;5058563;28;20018;-83
2022/08/01 13:03:03;;;;;;;4.13;2.13;;;;;;;;;;5078415;28;20040;-82
2022/08/01 13:05:40;;;;;;;4.85;2.58;;;;;;;;;;5081514;28;20051;-83
2022/08/01 13:08:09;;;;;;;4.90;2.60;;;;;;;;;;5063260;28;20024;-82
2022/08/01 13:10:35;;;;;;;5.65;3.05;;;;;;;;;;5079397;28;20081;-82
2022/08/01 13:13:03;;;;;;;4.20;2.40;;;;;;;;;;5075893;28;20041;-83
2022/08/01 13:15:34;;;;;;;4.40;2.70;;;;;;;;;;5080356;28;20548;-81
2022/08/01 13:18:01;;;;;;;5.53;2.90;;;;;;;;;;5077372;28;20500;-82
2022/08/01 13:20:27;;;;;;;5.50;2.58;;;;;;;;;;5076183;28;20024;-81
2022/08/01 13:22:53;;;;;;;3.97;2.67;;;;;;;;;;5041659;28;20024;-83
2022/08/01 13:25:19;;;;;;;6.00;2.88;;;;;;;;;;5057982;28;20107;-83
2022/08/01 13:27:45;;;;;;;4.95;2.90;;;;;;;;;;5056862;28;20024;-82
2022/08/01 13:30:16;;;;;;;4.50;2.97;;;;;;;;;;5058758;28;20084;-80
2022/08/01 13:32:44;;;;;;;5.63;3.58;;;;;;;;;;5060105;28;20021;-83
2022/08/01 13:35:12;;;;;;;5.30;3.70;;;;;;;;;;5076755;28;20017;-81
2022/08/01 13:37:42;;;;;;;4.80;3.35;;;;;;;;;;5067718;28;20083;-85
2022/08/01 13:40:10;;;;;;;4.45;3.05;;;;;;;;;;5056745;28;20048;-81
2022/08/01 13:42:36;;;;;;;6.20;3.25;;;;;;;;;;5054708;28;20053;-82
2022/08/01 13:45:03;;;;;;;4.88;3.50;;;;;;;;;;5054787;28;20032;-81
2022/08/01 13:47:29;;;;;;;4.70;3.22;;;;;;;;;;5059203;28;20039;-82
2022/08/01 13:49:55;;;;;;;4.30;3.20;;;;;;;;;;5062282;28;20036;-83
2022/08/01 13:52:21;;;;;;;4.45;3.05;;;;;;;;;;5074461;28;20047;-83
2022/08/01 13:54:47;;;;;;;5.10;3.10;;;;;;;;;;5081234;28;20487;-83
2022/08/01 13:57:16;;;;;;;4.90;3.05;;;;;;;;;;5070523;28;20025;-84
2022/08/01 13:59:42;;;;;;;4.28;2.67;;;;;;;;;;5058431;28;20119;-84
2022/08/01 14:02:08;;;;;;;4.88;3.00;;;;;;;;;;5072234;28;20071;-84
2022/08/01 14:04:34;;;;;;;5.28;2.63;;;;;;;;;;5066147;28;20082;-84
2022/08/01 14:07:00;;;;;;;4.88;2.60;;;;;;;;;;5057853;28;20037;-83
2022/08/01 14:09:26;;;;;;;3.95;2.67;;;;;;;;;;5052314;28;20091;-83
2022/08/01 14:11:52;;;;;;;4.97;2.40;;;;;;;;;;5068557;28;20394;-83
2022/08/01 14:14:18;;;;;;;4.97;2.67;;;;;;;;;;5078683;28;20031;-82
2022/08/01 14:16:44;;;;;;;4.97;2.90;;;;;;;;;;5076593;28;20039;-84
2022/08/01 14:19:10;;;;;;;5.63;2.97;;;;;;;;;;5076452;28;20103;-83
2022/08/01 14:21:36;;;;;;;4.18;2.35;;;;;;;;;;5066694;28;20060;-82
2022/08/01 14:24:03;;;;;;;5.55;2.88;;;;;;;;;;5056781;28;20024;-82
2022/08/01 14:26:29;;;;;;;5.18;2.60;;;;;;;;;;5038845;28;20055;-83
2022/08/01 14:28:55;;;;;;;6.97;2.70;;;;;;;;;;5056931;28;20102;-82
2022/08/01 14:31:21;;;;;;;5.05;2.75;;;;;;;;;;5056567;28;20031;-83
2022/08/01 14:33:47;;;;;;;5.28;2.40;;;;;;;;;;5057422;28;20027;-83
2022/08/01 14:36:13;;;;;;;4.20;2.40;;;;;;;;;;5056254;28;20029;-84
2022/08/01 14:38:39;;;;;;;4.25;2.55;;;;;;;;;;5038902;28;20022;-83
2022/08/01 14:41:05;;;;;;;5.57;2.45;;;;;;;;;;5047035;28;21899;-84
2022/08/01 14:43:34;;;;;;;3.97;2.10;;;;;;;;;;5074729;28;20064;-82
2022/08/01 14:46:02;;;;;;;3.90;2.17;;;;;;;;;;5077917;28;20036;-83
2022/08/01 14:48:28;;;;;;;4.20;2.20;;;;;;;;;;5077838;28;20025;-84
2022/08/01 14:50:54;;;;;;;3.85;2.10;;;;;;;;;;5058492;28;20025;-82